createdAt,value
2023-03-20T00:01:13.545Z,74.50
2023-03-20T00:03:43.414Z,74.70
2023-03-20T00:06:18.550Z,74.70
2023-03-20T00:08:48.122Z,74.70
2023-03-20T00:11:30.621Z,74.70
2023-03-20T00:14:01.364Z,74.80
2023-03-20T00:16:33.406Z,74.80
2023-03-20T00:19:04.112Z,74.80
2023-03-20T00:21:33.094Z,75.00
2023-03-20T00:24:01.988Z,75.00
2023-03-20T00:26:34.802Z,75.10
2023-03-20T00:29:04.684Z,75.10
2023-03-20T00:31:35.636Z,75.10
2023-03-20T00:34:07.051Z,75.10
2023-03-20T00:36:35.439Z,75.20
2023-03-20T00:39:04.677Z,75.20
2023-03-20T00:41:38.608Z,75.50
2023-03-20T00:44:21.311Z,76.10
2023-03-20T00:46:52.687Z,75.90
2023-03-20T00:49:26.531Z,75.80
2023-03-20T00:51:54.923Z,75.70
2023-03-20T00:54:23.293Z,75.80
2023-03-20T00:56:57.063Z,75.80
2023-03-20T00:59:30.141Z,75.70
2023-03-20T01:01:58.822Z,75.80
2023-03-20T01:04:35.575Z,75.80
2023-03-20T01:07:03.916Z,75.80
2023-03-20T01:09:32.457Z,75.80
2023-03-20T01:12:01.779Z,75.80
2023-03-20T01:14:30.295Z,75.80
2023-03-20T01:16:58.638Z,76.00
2023-03-20T01:19:28.314Z,76.00
2023-03-20T01:21:56.758Z,76.00
2023-03-20T01:24:25.070Z,76.00
2023-03-20T01:26:54.846Z,76.00
2023-03-20T01:29:25.798Z,76.00
2023-03-20T01:31:54.823Z,76.10
2023-03-20T01:34:23.552Z,76.10
2023-03-20T01:36:55.493Z,76.10
2023-03-20T01:39:29.914Z,76.20
2023-03-20T01:41:58.250Z,76.20
2023-03-20T01:44:29.903Z,76.20
2023-03-20T01:47:00.177Z,76.30
2023-03-20T01:50:05.674Z,76.30
2023-03-20T01:52:35.500Z,76.50
2023-03-20T01:55:04.234Z,76.40
2023-03-20T01:57:32.747Z,76.40
2023-03-20T02:00:06.358Z,76.30
2023-03-20T02:02:34.853Z,76.50
2023-03-20T02:05:07.471Z,76.50
2023-03-20T02:07:39.345Z,76.60
2023-03-20T02:10:12.119Z,76.70
2023-03-20T02:12:40.659Z,76.80
2023-03-20T02:15:10.981Z,76.80
2023-03-20T02:17:39.348Z,76.80
2023-03-20T02:20:18.064Z,76.80
2023-03-20T02:23:28.723Z,76.80
2023-03-20T02:26:36.196Z,76.80
2023-03-20T02:29:42.476Z,78.20
2023-03-20T02:32:53.622Z,77.80
2023-03-20T02:36:02.268Z,77.70
2023-03-20T02:39:03.075Z,77.50
2023-03-20T02:41:40.022Z,77.40
2023-03-20T02:44:14.899Z,77.30
2023-03-20T02:46:53.980Z,77.20
2023-03-20T02:49:37.057Z,77.20
2023-03-20T02:52:13.561Z,77.20
2023-03-20T02:54:47.241Z,77.10
2023-03-20T02:57:21.859Z,77.20
2023-03-20T02:59:57.861Z,77.20
2023-03-20T03:02:34.568Z,77.40
2023-03-20T03:05:09.481Z,77.20
2023-03-20T03:07:39.304Z,77.30
2023-03-20T03:10:12.498Z,77.40
2023-03-20T03:12:45.407Z,77.40
2023-03-20T03:15:20.160Z,77.40
2023-03-20T03:17:50.781Z,77.50
2023-03-20T03:20:24.723Z,77.60
2023-03-20T03:22:53.226Z,77.50
2023-03-20T03:25:24.291Z,77.60
2023-03-20T03:28:00.993Z,77.80
2023-03-20T03:30:32.595Z,77.70
2023-03-20T03:33:15.487Z,77.80
2023-03-20T03:35:44.383Z,77.70
2023-03-20T03:38:27.848Z,77.80
2023-03-20T03:41:08.575Z,77.80
2023-03-20T03:43:44.826Z,77.80
2023-03-20T03:46:18.443Z,77.80
2023-03-20T03:48:51.752Z,77.90
2023-03-20T03:51:24.336Z,78.00
2023-03-20T03:53:59.719Z,78.00
2023-03-20T03:56:32.328Z,78.00
2023-03-20T03:59:05.794Z,78.00
2023-03-20T04:01:36.119Z,77.90
2023-03-20T04:04:08.413Z,78.00
2023-03-20T04:06:37.019Z,78.10
2023-03-20T04:09:05.476Z,78.00
2023-03-20T04:11:35.753Z,78.20
2023-03-20T04:14:05.728Z,78.20
2023-03-20T04:16:33.989Z,78.20
2023-03-20T04:19:02.332Z,78.20
2023-03-20T04:21:30.919Z,78.30
2023-03-20T04:23:59.233Z,78.30
2023-03-20T04:26:27.569Z,78.30
2023-03-20T04:28:55.944Z,78.40
2023-03-20T04:31:25.849Z,78.40
2023-03-20T04:33:54.220Z,78.50
2023-03-20T04:36:22.765Z,78.60
2023-03-20T04:38:51.127Z,78.80
2023-03-20T04:41:21.229Z,78.90
2023-03-20T04:43:49.539Z,79.10
2023-03-20T04:46:17.878Z,79.10
2023-03-20T04:48:47.563Z,79.20
2023-03-20T04:51:15.830Z,79.20
2023-03-20T04:53:44.134Z,79.20
2023-03-20T04:56:12.442Z,79.20
2023-03-20T04:58:40.774Z,79.20
2023-03-20T05:01:09.209Z,79.20
2023-03-20T05:03:37.625Z,79.20
2023-03-20T05:06:08.042Z,79.50
2023-03-20T05:08:36.845Z,79.60
2023-03-20T05:11:05.357Z,79.70
2023-03-20T05:13:33.616Z,79.80
2023-03-20T05:16:02.338Z,79.90
2023-03-20T05:18:30.779Z,80.00
2023-03-20T05:20:59.064Z,80.50
2023-03-20T05:23:28.774Z,81.20
2023-03-20T05:25:57.142Z,81.50
2023-03-20T05:28:25.547Z,81.70
2023-03-20T05:30:53.908Z,81.60
2023-03-20T05:33:22.371Z,81.80
2023-03-20T05:35:50.769Z,81.70
2023-03-20T05:38:22.648Z,81.70
2023-03-20T05:40:56.948Z,81.70
2023-03-20T05:43:25.370Z,81.60
2023-03-20T05:45:53.801Z,82.20
2023-03-20T05:48:22.121Z,81.30
2023-03-20T05:50:50.657Z,81.10
2023-03-20T05:53:18.951Z,80.90
2023-03-20T05:55:47.273Z,80.80
2023-03-20T05:58:17.062Z,80.70
2023-03-20T06:00:45.639Z,80.80
2023-03-20T06:03:13.977Z,80.80
2023-03-20T06:05:42.746Z,80.80
2023-03-20T06:08:11.103Z,80.80
2023-03-20T06:10:39.462Z,80.90
2023-03-20T06:13:07.752Z,80.90
2023-03-20T06:15:37.809Z,80.70
2023-03-20T06:18:06.447Z,80.70
2023-03-20T06:20:34.739Z,80.50
2023-03-20T06:23:03.060Z,80.50
2023-03-20T06:25:31.750Z,80.40
2023-03-20T06:28:00.045Z,80.30
2023-03-20T06:30:28.359Z,80.10
2023-03-20T06:32:58.086Z,80.00
2023-03-20T06:35:30.799Z,79.90
2023-03-20T06:37:59.159Z,80.00
2023-03-20T06:40:28.509Z,80.10
2023-03-20T06:42:57.018Z,80.40
2023-03-20T06:45:25.442Z,80.00
2023-03-20T06:47:53.796Z,80.10
2023-03-20T06:50:23.645Z,80.00
2023-03-20T06:52:52.422Z,80.00
2023-03-20T06:55:20.930Z,80.00
2023-03-20T06:57:49.230Z,79.80
2023-03-20T07:00:19.156Z,79.70
2023-03-20T07:02:47.623Z,79.80
2023-03-20T07:05:16.170Z,79.70
2023-03-20T07:07:46.057Z,79.50
2023-03-20T07:10:14.377Z,79.40
2023-03-20T07:12:42.660Z,79.20
2023-03-20T07:15:11.683Z,79.00
2023-03-20T07:17:40.020Z,78.90
2023-03-20T07:20:10.103Z,78.90
2023-03-20T07:22:38.677Z,78.70
2023-03-20T07:25:09.930Z,78.40
2023-03-20T07:27:38.880Z,78.30
2023-03-20T07:30:08.892Z,78.10
2023-03-20T07:32:38.081Z,78.00
2023-03-20T07:35:07.314Z,77.80
2023-03-20T07:37:35.701Z,77.80
2023-03-20T07:40:04.326Z,77.90
2023-03-20T07:42:34.107Z,77.90
2023-03-20T07:45:02.358Z,77.80
2023-03-20T07:47:30.714Z,77.70
2023-03-20T07:49:59.157Z,77.50
2023-03-20T07:52:27.460Z,77.40
2023-03-20T07:54:55.796Z,77.30
2023-03-20T07:57:24.151Z,77.30
2023-03-20T07:59:53.822Z,77.00
2023-03-20T08:02:22.172Z,77.10
2023-03-20T08:04:50.472Z,77.00
2023-03-20T08:07:19.019Z,76.80
2023-03-20T08:09:47.414Z,76.60
2023-03-20T08:12:17.182Z,76.00
2023-03-20T08:14:45.618Z,76.00
2023-03-20T08:17:18.132Z,76.00
2023-03-20T08:19:47.761Z,75.80
2023-03-20T08:22:16.103Z,75.40
2023-03-20T08:24:44.410Z,74.90
2023-03-20T08:27:12.677Z,75.00
2023-03-20T08:29:41.091Z,74.70
2023-03-20T08:32:09.417Z,73.80
2023-03-20T08:34:39.219Z,73.80
2023-03-20T08:37:08.084Z,73.50
2023-03-20T08:39:36.639Z,73.50
2023-03-20T08:42:05.015Z,73.30
2023-03-20T08:44:33.376Z,73.40
2023-03-20T08:47:01.870Z,73.00
2023-03-20T08:49:30.197Z,71.90
2023-03-20T08:52:00.587Z,72.00
2023-03-20T08:54:29.144Z,72.00
2023-03-20T08:56:57.718Z,71.60
2023-03-20T08:59:26.035Z,71.30
2023-03-20T09:01:54.383Z,71.10
2023-03-20T09:04:22.723Z,71.60
2023-03-20T09:06:51.831Z,70.90
2023-03-20T09:09:27.040Z,70.50
2023-03-20T09:11:55.336Z,70.40
2023-03-20T09:14:23.711Z,69.90
2023-03-20T09:16:52.144Z,69.90
2023-03-20T09:19:21.161Z,69.60
2023-03-20T09:21:49.778Z,68.00
2023-03-20T09:24:18.035Z,67.50
2023-03-20T09:26:47.711Z,67.90
2023-03-20T09:29:16.178Z,68.20
2023-03-20T09:31:44.475Z,68.50
2023-03-20T09:34:12.836Z,67.30
2023-03-20T09:36:41.205Z,67.40
2023-03-20T09:39:09.952Z,66.80
2023-03-20T09:41:55.730Z,67.00
2023-03-20T09:44:40.177Z,67.10
2023-03-20T09:47:20.650Z,66.70
2023-03-20T09:49:58.423Z,66.20
2023-03-20T09:52:31.895Z,65.90
2023-03-20T09:55:04.257Z,64.70
2023-03-20T09:57:40.919Z,64.80
2023-03-20T10:00:18.645Z,65.10
2023-03-20T10:02:51.305Z,65.00
2023-03-20T10:05:25.431Z,65.20
2023-03-20T10:07:55.952Z,64.40
2023-03-20T10:10:41.093Z,64.40
2023-03-20T10:13:34.452Z,64.70
2023-03-20T10:16:13.341Z,63.60
2023-03-20T10:18:47.734Z,63.90
2023-03-20T10:21:19.340Z,62.50
2023-03-20T10:23:57.766Z,62.00
2023-03-20T10:26:26.306Z,61.90
2023-03-20T10:28:58.895Z,61.20
2023-03-20T10:31:42.474Z,61.20
2023-03-20T10:34:26.264Z,60.50
2023-03-20T10:37:05.457Z,59.70
2023-03-20T10:39:53.568Z,59.90
2023-03-20T10:42:25.282Z,60.00
2023-03-20T10:44:58.614Z,60.20
2023-03-20T10:47:32.208Z,59.50
2023-03-20T10:50:04.379Z,59.30
2023-03-20T10:52:35.006Z,58.40
2023-03-20T10:55:09.183Z,58.40
2023-03-20T10:57:42.146Z,58.10
2023-03-20T11:00:20.016Z,57.60
2023-03-20T11:02:50.024Z,57.80
2023-03-20T11:05:25.741Z,57.30
2023-03-20T11:08:03.524Z,57.70
2023-03-20T11:10:34.867Z,57.00
2023-03-20T11:13:20.169Z,57.00
2023-03-20T11:15:49.214Z,56.40
2023-03-20T11:18:18.945Z,56.70
2023-03-20T11:20:52.975Z,56.80
2023-03-20T11:23:26.985Z,56.10
2023-03-20T11:26:00.040Z,56.70
2023-03-20T11:28:39.803Z,57.00
2023-03-20T11:31:18.068Z,56.50
2023-03-20T11:33:52.136Z,56.50
2023-03-20T11:36:28.058Z,55.80
2023-03-20T11:39:04.061Z,55.80
2023-03-20T11:41:32.456Z,56.10
2023-03-20T11:44:00.787Z,56.30
2023-03-20T11:46:29.369Z,56.80
2023-03-20T11:49:20.269Z,55.20
2023-03-20T11:51:48.638Z,54.40
2023-03-20T11:54:20.303Z,54.80
2023-03-20T11:56:56.839Z,55.00
2023-03-20T11:59:31.208Z,55.20
2023-03-20T12:01:59.939Z,55.70
2023-03-20T12:04:32.112Z,55.60
2023-03-20T12:07:06.865Z,55.90
2023-03-20T12:09:43.710Z,55.80
2023-03-20T12:12:26.229Z,54.70
2023-03-20T12:15:02.731Z,54.50
2023-03-20T12:17:52.760Z,54.70
2023-03-20T12:20:38.131Z,54.90
2023-03-20T12:23:14.314Z,54.80
2023-03-20T12:25:48.680Z,54.80
2023-03-20T12:28:23.538Z,54.20
2023-03-20T12:31:08.813Z,54.30
2023-03-20T12:33:44.244Z,53.70
2023-03-20T12:36:18.601Z,53.60
2023-03-20T12:38:47.728Z,53.40
2023-03-20T12:41:17.642Z,53.40
2023-03-20T12:44:15.083Z,52.80
2023-03-20T12:46:48.638Z,52.80
2023-03-20T12:49:39.660Z,52.40
2023-03-20T12:52:16.330Z,52.40
2023-03-20T12:55:13.311Z,51.00
2023-03-20T12:57:51.399Z,51.10
2023-03-20T13:00:25.723Z,51.80
2023-03-20T13:03:10.534Z,52.30
2023-03-20T13:05:47.297Z,52.10
2023-03-20T13:08:52.968Z,52.00
2023-03-20T13:11:46.879Z,50.90
2023-03-20T13:17:12.941Z,50.70
2023-03-20T13:19:46.680Z,50.60
2023-03-20T13:22:19.624Z,50.30
2023-03-20T13:24:51.860Z,49.90
2023-03-20T13:27:31.015Z,49.90
2023-03-20T13:30:04.654Z,48.50
2023-03-20T13:32:47.242Z,48.80
2023-03-20T13:35:31.925Z,46.80
2023-03-20T13:38:03.866Z,47.30
2023-03-20T13:40:39.532Z,48.30
2023-03-20T13:43:26.190Z,47.20
2023-03-20T13:46:00.975Z,46.20
2023-03-20T13:48:33.723Z,46.90
2023-03-20T13:51:09.134Z,45.80
2023-03-20T13:53:49.412Z,43.80
2023-03-20T13:56:27.525Z,43.30
2023-03-20T13:59:31.575Z,42.20
2023-03-20T14:02:08.967Z,40.90
2023-03-20T14:04:37.942Z,38.50
2023-03-20T14:07:29.273Z,38.80
2023-03-20T14:09:57.749Z,39.60
2023-03-20T14:12:28.493Z,38.90
2023-03-20T14:14:58.868Z,39.10
2023-03-20T14:17:28.692Z,38.10
2023-03-20T14:19:58.872Z,38.00
2023-03-20T14:22:30.628Z,37.90
2023-03-20T14:25:02.102Z,37.00
2023-03-20T14:27:44.260Z,37.10
2023-03-20T14:30:39.800Z,37.90
2023-03-20T14:33:24.488Z,38.60
2023-03-20T14:36:12.703Z,38.60
2023-03-20T14:38:53.687Z,39.00
2023-03-20T14:41:28.772Z,39.00
2023-03-20T14:44:07.626Z,39.50
2023-03-20T14:46:48.005Z,40.00
2023-03-20T14:49:32.985Z,40.20
2023-03-20T14:52:15.625Z,40.50
2023-03-20T14:54:44.122Z,41.30
2023-03-20T14:57:20.482Z,41.90
2023-03-20T14:59:51.849Z,42.30
2023-03-20T15:02:28.069Z,43.00
2023-03-20T15:04:57.446Z,43.10
2023-03-20T15:07:27.968Z,43.40
2023-03-20T15:09:59.546Z,43.60
2023-03-20T15:12:30.447Z,43.90
2023-03-20T15:15:02.491Z,44.30
2023-03-20T15:17:37.430Z,44.70
2023-03-20T15:20:12.091Z,45.00
2023-03-20T15:22:50.139Z,45.50
2023-03-20T15:25:19.624Z,45.80
2023-03-20T15:27:49.577Z,46.20
2023-03-20T15:30:28.524Z,46.40
2023-03-20T15:32:57.949Z,46.70
2023-03-20T15:35:28.701Z,47.00
2023-03-20T15:37:59.513Z,47.50
2023-03-20T15:40:40.236Z,47.80
2023-03-20T15:43:16.214Z,48.20
2023-03-20T15:45:46.092Z,48.30
2023-03-20T15:48:16.613Z,48.60
2023-03-20T15:50:49.429Z,49.00
2023-03-20T15:53:20.688Z,49.20
2023-03-20T15:55:51.439Z,49.30
2023-03-20T15:58:20.180Z,49.70
2023-03-20T16:00:50.877Z,49.90
2023-03-20T16:03:23.261Z,50.20
2023-03-20T16:05:53.096Z,50.30
2023-03-20T16:08:25.770Z,50.50
2023-03-20T16:10:58.226Z,50.80
2023-03-20T16:13:28.064Z,50.90
2023-03-20T16:15:58.234Z,51.10
2023-03-20T16:18:26.835Z,51.20
2023-03-20T16:20:59.466Z,51.30
2023-03-20T16:23:36.553Z,51.50
2023-03-20T16:26:08.010Z,51.60
2023-03-20T16:28:38.801Z,51.70
2023-03-20T16:31:14.811Z,51.90
2023-03-20T16:33:43.483Z,52.00
2023-03-20T16:36:18.979Z,52.10
2023-03-20T16:38:56.886Z,52.30
2023-03-20T16:41:30.677Z,52.40
2023-03-20T16:43:59.570Z,52.60
2023-03-20T16:46:29.833Z,52.80
2023-03-20T16:48:59.660Z,52.80
2023-03-20T16:51:30.121Z,53.10
2023-03-20T16:54:01.484Z,53.20
2023-03-20T16:56:34.543Z,53.30
2023-03-20T16:59:09.580Z,53.40
2023-03-20T17:01:44.907Z,53.60
2023-03-20T17:04:19.077Z,53.70
2023-03-20T17:06:49.719Z,53.90
2023-03-20T17:09:22.233Z,54.10
2023-03-20T17:11:52.829Z,54.20
2023-03-20T17:14:21.137Z,54.40
2023-03-20T17:16:53.477Z,54.50
2023-03-20T17:19:21.953Z,54.60
2023-03-20T17:21:50.369Z,54.90
2023-03-20T17:24:19.122Z,55.00
2023-03-20T17:26:51.159Z,55.20
2023-03-20T17:29:19.458Z,55.50
2023-03-20T17:31:47.927Z,55.60
2023-03-20T17:34:17.726Z,55.80
2023-03-20T17:36:46.342Z,56.00
2023-03-20T17:39:19.659Z,56.10
2023-03-20T17:41:48.719Z,56.30
2023-03-20T17:44:17.013Z,56.40
2023-03-20T17:46:57.262Z,56.50
2023-03-20T17:49:28.480Z,56.70
2023-03-20T17:51:57.680Z,56.90
2023-03-20T17:54:26.313Z,57.00
2023-03-20T17:56:54.924Z,57.20
2023-03-20T17:59:24.923Z,57.30
2023-03-20T18:01:53.365Z,57.50
2023-03-20T18:04:21.691Z,57.70
2023-03-20T18:06:51.384Z,57.80
2023-03-20T18:09:20.770Z,58.00
2023-03-20T18:11:49.121Z,58.00
2023-03-20T18:14:19.401Z,58.00
2023-03-20T18:16:47.722Z,58.10
2023-03-20T18:19:24.276Z,58.30
2023-03-20T18:21:53.998Z,58.30
2023-03-20T18:24:22.582Z,58.40
2023-03-20T18:26:51.535Z,58.60
2023-03-20T18:29:19.942Z,58.70
2023-03-20T18:31:48.512Z,58.80
2023-03-20T18:34:16.900Z,59.00
2023-03-20T18:36:45.805Z,59.00
2023-03-20T18:39:19.735Z,59.10
2023-03-20T18:41:48.212Z,59.20
2023-03-20T18:44:16.580Z,59.20
2023-03-20T18:46:45.107Z,59.30
2023-03-20T18:49:16.636Z,59.40
2023-03-20T18:51:45.230Z,59.50
2023-03-20T18:54:13.668Z,59.60
2023-03-20T18:56:43.557Z,59.60
2023-03-20T18:59:13.917Z,59.70
2023-03-20T19:01:42.308Z,59.90
2023-03-20T19:04:17.137Z,60.00
2023-03-20T19:06:45.912Z,60.30
2023-03-20T19:09:14.172Z,60.30
2023-03-20T19:11:43.903Z,60.50
2023-03-20T19:14:13.332Z,60.50
2023-03-20T19:16:41.746Z,60.70
2023-03-20T19:19:13.563Z,60.90
2023-03-20T19:21:42.187Z,61.00
2023-03-20T19:24:11.530Z,61.10
2023-03-20T19:26:39.863Z,61.30
2023-03-20T19:29:13.841Z,61.50
2023-03-20T19:31:42.244Z,61.60
2023-03-20T19:34:28.082Z,61.70
2023-03-20T19:36:58.969Z,61.80
2023-03-20T19:39:27.241Z,62.00
2023-03-20T19:41:55.932Z,62.20
2023-03-20T19:44:25.640Z,62.40
2023-03-20T19:46:55.961Z,62.50
2023-03-20T19:49:30.786Z,62.70
2023-03-20T19:51:59.380Z,62.70
2023-03-20T19:54:28.586Z,63.70
2023-03-20T19:56:56.860Z,63.00
2023-03-20T19:59:26.771Z,63.10
2023-03-20T20:01:56.161Z,63.30
2023-03-20T20:04:24.642Z,63.50
2023-03-20T20:06:55.503Z,63.60
2023-03-20T20:09:28.729Z,63.80
2023-03-20T20:11:58.185Z,63.90
2023-03-20T20:14:27.866Z,64.10
2023-03-20T20:16:56.222Z,64.10
2023-03-20T20:19:24.778Z,64.00
2023-03-20T20:24:41.490Z,64.10
2023-03-20T20:27:19.063Z,64.10
2023-03-20T20:29:50.904Z,64.20
2023-03-20T20:32:21.415Z,64.30
2023-03-20T20:38:27.071Z,64.30
2023-03-20T20:40:30.512Z,65.30
2023-03-20T20:43:01.681Z,64.60
2023-03-20T20:45:32.726Z,64.60
2023-03-20T20:48:01.664Z,64.60
2023-03-20T20:50:31.798Z,64.70
2023-03-20T20:53:00.880Z,64.70
2023-03-20T20:55:29.605Z,64.70
2023-03-20T20:57:57.941Z,64.90
2023-03-20T21:00:47.734Z,65.00
2023-03-20T21:03:17.057Z,65.10
2023-03-20T21:05:45.406Z,65.80
2023-03-20T21:08:14.616Z,65.80
2023-03-20T21:10:45.049Z,66.10
2023-03-20T21:13:13.463Z,66.30
2023-03-20T21:15:42.138Z,66.30
2023-03-20T21:18:10.859Z,66.80
2023-03-20T21:20:40.554Z,67.50
2023-03-20T21:23:08.838Z,67.80
2023-03-20T21:25:41.153Z,68.60
2023-03-20T21:28:10.806Z,68.20
2023-03-20T21:30:51.115Z,69.00
2023-03-20T21:33:30.641Z,68.00
2023-03-20T21:36:00.704Z,68.00
2023-03-20T21:39:01.963Z,68.00
2023-03-20T21:41:18.088Z,68.10
2023-03-20T21:43:47.406Z,68.10
2023-03-20T22:03:22.314Z,68.30
2023-03-20T22:12:16.502Z,69.40
2023-03-20T22:20:44.745Z,70.10
2023-03-20T22:23:32.338Z,70.60
2023-03-20T22:26:22.404Z,70.20
2023-03-20T22:29:24.836Z,70.00
2023-03-20T22:37:46.660Z,69.80
2023-03-20T22:42:55.725Z,70.10
2023-03-20T22:47:53.927Z,70.10
2023-03-20T22:50:22.265Z,70.50
2023-03-20T22:52:53.752Z,70.70
2023-03-20T22:55:22.781Z,70.70
2023-03-20T22:58:06.409Z,70.50
2023-03-20T23:00:36.273Z,70.50
2023-03-20T23:03:37.628Z,70.50
2023-03-20T23:05:54.081Z,70.60
2023-03-20T23:08:23.667Z,70.70
2023-03-20T23:10:52.874Z,70.80
2023-03-20T23:13:22.607Z,71.10
2023-03-20T23:15:51.760Z,71.40
2023-03-20T23:18:20.958Z,71.60
2023-03-20T23:20:49.361Z,71.80
2023-03-20T23:23:17.880Z,71.60
2023-03-20T23:25:46.465Z,71.70
2023-03-20T23:28:14.816Z,71.90
2023-03-20T23:30:51.904Z,71.90
2023-03-20T23:33:28.388Z,72.20
2023-03-20T23:36:10.980Z,72.00
2023-03-20T23:38:42.973Z,72.70
2023-03-20T23:41:11.721Z,73.00
2023-03-20T23:43:40.329Z,73.00
2023-03-20T23:46:11.007Z,72.90
2023-03-20T23:48:39.757Z,73.50
2023-03-20T23:51:08.747Z,73.60
2023-03-20T23:53:37.337Z,73.80
2023-03-20T23:56:06.278Z,73.90
2023-03-20T23:58:35.974Z,74.10
